Time;durP1;ratioP1;P1;durP2;ratioP2;P2;SDS_P1;SDS_P2;PMS_P1;PMS_P2;Temp;Humidity;BMP_temperature;BMP_pressure;BME280_temperature;BME280_humidity;BME280_pressure;Samples;Min_cycle;Max_cycle;Signal;HPM_P1;HPM_P2
2021/03/26 00:00:44;;;;;;;14.43;3.50;;;;;;;;;;10450988;28;20231;-79
2021/03/26 00:05:48;;;;;;;9.70;4.00;;;;;;;;;;10447724;28;20661;-79
2021/03/26 00:10:51;;;;;;;12.17;4.33;;;;;;;;;;10452191;28;20624;-80
2021/03/26 00:15:53;;;;;;;8.57;4.00;;;;;;;;;;10441132;28;20889;-79
2021/03/26 00:20:56;;;;;;;11.33;3.80;;;;;;;;;;10455179;28;20360;-79
2021/03/26 00:25:59;;;;;;;9.17;4.00;;;;;;;;;;10454822;28;20202;-79
2021/03/26 00:31:01;;;;;;;8.43;3.70;;;;;;;;;;10450980;28;20218;-79
2021/03/26 00:36:04;;;;;;;10.13;3.83;;;;;;;;;;10447344;28;20207;-79
2021/03/26 00:41:07;;;;;;;11.67;4.13;;;;;;;;;;10449421;28;20321;-79
2021/03/26 00:46:09;;;;;;;10.10;4.33;;;;;;;;;;10442796;28;20226;-79
2021/03/26 00:51:12;;;;;;;11.63;4.50;;;;;;;;;;10447003;28;20221;-79
2021/03/26 00:56:14;;;;;;;12.73;4.60;;;;;;;;;;10451420;28;20245;-79
2021/03/26 01:01:19;;;;;;;11.27;4.90;;;;;;;;;;10444523;28;20660;-79
2021/03/26 01:06:22;;;;;;;10.40;4.87;;;;;;;;;;10450916;28;20573;-80
2021/03/26 01:11:25;;;;;;;11.03;4.80;;;;;;;;;;10452028;28;20249;-80
2021/03/26 01:16:28;;;;;;;12.80;4.97;;;;;;;;;;10455771;28;20609;-80
2021/03/26 01:21:33;;;;;;;16.17;5.57;;;;;;;;;;10445543;28;20296;-80
2021/03/26 01:26:35;;;;;;;12.53;5.47;;;;;;;;;;10448679;28;20633;-79
2021/03/26 01:31:38;;;;;;;15.03;5.03;;;;;;;;;;10445554;28;20214;-79
2021/03/26 01:36:41;;;;;;;11.60;5.13;;;;;;;;;;10445351;28;20235;-79
2021/03/26 01:41:45;;;;;;;10.90;5.40;;;;;;;;;;10450348;28;20715;-79
2021/03/26 01:46:47;;;;;;;11.03;5.63;;;;;;;;;;10447541;28;20239;-79
2021/03/26 01:51:51;;;;;;;12.70;5.57;;;;;;;;;;10449408;28;20215;-79
2021/03/26 01:56:53;;;;;;;13.83;5.17;;;;;;;;;;10459029;28;20372;-78
2021/03/26 02:01:57;;;;;;;17.03;6.07;;;;;;;;;;10452152;28;20294;-79
2021/03/26 02:07:00;;;;;;;13.77;5.90;;;;;;;;;;10453610;28;20327;-79
2021/03/26 02:12:07;;;;;;;13.70;6.40;;;;;;;;;;10456452;28;20243;-79
2021/03/26 02:17:12;;;;;;;11.40;6.37;;;;;;;;;;10455117;28;20733;-79
2021/03/26 02:22:15;;;;;;;13.63;5.80;;;;;;;;;;10452473;28;20239;-79
2021/03/26 02:27:28;;;;;;;15.50;6.80;;;;;;;;;;10460680;28;20207;-79
2021/03/26 02:32:32;;;;;;;14.67;6.90;;;;;;;;;;10448042;28;20218;-79
2021/03/26 02:37:47;;;;;;;17.07;7.23;;;;;;;;;;10454233;28;20214;-79
2021/03/26 02:42:51;;;;;;;17.80;8.20;;;;;;;;;;10457853;28;20239;-79
2021/03/26 02:47:55;;;;;;;14.47;7.93;;;;;;;;;;10454944;28;20712;-79
2021/03/26 02:53:00;;;;;;;16.03;8.47;;;;;;;;;;10451455;28;20290;-79
2021/03/26 02:58:05;;;;;;;17.50;8.10;;;;;;;;;;10450097;28;20227;-80
2021/03/26 03:03:08;;;;;;;19.30;9.60;;;;;;;;;;10450814;28;20237;-79
2021/03/26 03:08:13;;;;;;;16.57;9.27;;;;;;;;;;10456478;28;20301;-79
2021/03/26 03:13:18;;;;;;;17.67;10.47;;;;;;;;;;10449086;28;20245;-79
2021/03/26 03:18:23;;;;;;;19.20;10.80;;;;;;;;;;10455720;28;21153;-79
2021/03/26 03:23:33;;;;;;;23.47;12.20;;;;;;;;;;10452004;28;20234;-79
2021/03/26 03:28:38;;;;;;;20.80;11.77;;;;;;;;;;10449871;28;20210;-79
2021/03/26 03:33:45;;;;;;;22.77;12.33;;;;;;;;;;10453622;28;20215;-80
2021/03/26 03:38:53;;;;;;;20.43;13.37;;;;;;;;;;10454240;28;20333;-79
2021/03/26 03:44:02;;;;;;;20.80;12.90;;;;;;;;;;10450451;28;20251;-80
2021/03/26 03:49:05;;;;;;;24.07;14.30;;;;;;;;;;10449189;28;20239;-79
2021/03/26 03:54:12;;;;;;;20.60;13.43;;;;;;;;;;10455706;28;20214;-79
2021/03/26 03:59:20;;;;;;;23.67;14.53;;;;;;;;;;10449271;28;20301;-79
2021/03/26 04:04:36;;;;;;;22.80;13.30;;;;;;;;;;10453656;28;20325;-79
2021/03/26 04:09:41;;;;;;;24.10;14.80;;;;;;;;;;10447762;28;20207;-79
2021/03/26 04:14:45;;;;;;;23.73;14.40;;;;;;;;;;10449578;28;20797;-78
2021/03/26 04:19:49;;;;;;;24.43;14.07;;;;;;;;;;10450761;28;20233;-80
2021/03/26 04:24:53;;;;;;;23.37;14.53;;;;;;;;;;10442555;28;20315;-79
2021/03/26 04:30:00;;;;;;;23.40;13.80;;;;;;;;;;10447203;28;20321;-79
2021/03/26 04:35:02;;;;;;;28.13;15.17;;;;;;;;;;10447012;28;20302;-79
2021/03/26 04:40:07;;;;;;;21.93;14.13;;;;;;;;;;10450563;28;20202;-79
2021/03/26 04:45:15;;;;;;;24.33;13.93;;;;;;;;;;10447387;28;20235;-78
2021/03/26 04:50:20;;;;;;;24.13;13.73;;;;;;;;;;10451508;28;20251;-77
2021/03/26 04:55:26;;;;;;;24.90;14.23;;;;;;;;;;10450171;28;20295;-77
2021/03/26 05:00:32;;;;;;;25.00;14.43;;;;;;;;;;10442705;28;20587;-77
2021/03/26 05:05:37;;;;;;;24.37;13.87;;;;;;;;;;10452135;28;20679;-80
2021/03/26 05:10:45;;;;;;;28.47;14.10;;;;;;;;;;10453222;28;20213;-79
2021/03/26 05:15:52;;;;;;;23.47;13.87;;;;;;;;;;10456519;28;20616;-80
2021/03/26 05:20:57;;;;;;;20.63;12.37;;;;;;;;;;10456746;28;20218;-83
2021/03/26 05:26:00;;;;;;;22.07;12.63;;;;;;;;;;10446803;28;20621;-79
2021/03/26 05:31:06;;;;;;;24.87;13.47;;;;;;;;;;10457777;28;20203;-80
2021/03/26 05:36:19;;;;;;;19.93;12.27;;;;;;;;;;10458347;28;20946;-78
2021/03/26 05:52:52;;;;;;;22.00;12.40;;;;;;;;;;5039635;25;20240;-78
2021/03/26 05:58:00;;;;;;;21.73;12.43;;;;;;;;;;10519543;28;20256;-78
2021/03/26 06:03:35;;;;;;;22.30;12.57;;;;;;;;;;10514434;28;20638;-78
2021/03/26 06:08:46;;;;;;;19.97;12.20;;;;;;;;;;10519429;28;20682;-78
2021/03/26 06:14:10;;;;;;;23.13;13.37;;;;;;;;;;10508397;28;20230;-79
2021/03/26 06:19:30;;;;;;;20.23;11.70;;;;;;;;;;10493593;28;20215;-79
2021/03/26 06:30:14;;;;;;;19.33;12.33;;;;;;;;;;10484091;28;20592;-78
2021/03/26 06:35:34;;;;;;;19.87;12.57;;;;;;;;;;10500190;28;20676;-79
2021/03/26 06:40:57;;;;;;;24.20;13.70;;;;;;;;;;10490188;28;20276;-80
2021/03/26 06:46:17;;;;;;;21.20;12.37;;;;;;;;;;10486355;28;20233;-79
2021/03/26 06:51:30;;;;;;;20.07;11.93;;;;;;;;;;10488193;28;20589;-80
2021/03/26 06:57:01;;;;;;;21.50;12.47;;;;;;;;;;10494187;28;20675;-80
2021/03/26 07:02:19;;;;;;;23.43;12.87;;;;;;;;;;10488138;28;20672;-80
2021/03/26 07:07:49;;;;;;;24.93;12.33;;;;;;;;;;10494177;28;20213;-79
2021/03/26 07:13:17;;;;;;;22.87;11.53;;;;;;;;;;10423361;28;20238;-79
2021/03/26 07:18:34;;;;;;;22.40;12.53;;;;;;;;;;10482697;28;20689;-80
2021/03/26 07:23:57;;;;;;;19.87;11.80;;;;;;;;;;10483646;28;20604;-80
2021/03/26 07:29:31;;;;;;;21.70;11.90;;;;;;;;;;10483660;28;20287;-80
2021/03/26 07:34:58;;;;;;;20.30;11.93;;;;;;;;;;10491528;28;20220;-79
2021/03/26 07:40:18;;;;;;;19.43;11.37;;;;;;;;;;10485644;28;20296;-80
2021/03/26 07:51:05;;;;;;;21.57;12.27;;;;;;;;;;10483093;28;20215;-79
2021/03/26 07:56:14;;;;;;;26.33;12.07;;;;;;;;;;10485909;28;20206;-79
2021/03/26 08:01:23;;;;;;;22.13;11.93;;;;;;;;;;10490234;28;20229;-80
2021/03/26 08:06:37;;;;;;;18.50;11.40;;;;;;;;;;10491499;28;20278;-79
2021/03/26 08:11:57;;;;;;;21.33;11.53;;;;;;;;;;10489072;28;20298;-80
2021/03/26 08:17:08;;;;;;;22.27;11.40;;;;;;;;;;10482002;28;20227;-79
2021/03/26 08:22:17;;;;;;;18.17;10.90;;;;;;;;;;10487232;28;20319;-80
2021/03/26 08:27:37;;;;;;;22.63;12.37;;;;;;;;;;10493940;28;20569;-79
2021/03/26 08:32:49;;;;;;;21.23;10.77;;;;;;;;;;10487012;28;20252;-80
2021/03/26 08:38:20;;;;;;;18.80;11.00;;;;;;;;;;10491202;28;20249;-78
2021/03/26 08:43:23;;;;;;;17.13;9.80;;;;;;;;;;10485855;28;20234;-79
2021/03/26 08:48:33;;;;;;;17.50;10.43;;;;;;;;;;10484771;28;20241;-78
2021/03/26 08:53:44;;;;;;;19.07;10.57;;;;;;;;;;10481250;28;20575;-79
2021/03/26 08:59:05;;;;;;;19.80;11.03;;;;;;;;;;10480829;28;20206;-79
2021/03/26 09:04:28;;;;;;;19.13;10.87;;;;;;;;;;10492242;28;20261;-79
2021/03/26 09:09:44;;;;;;;17.40;10.17;;;;;;;;;;10474717;28;20559;-79
2021/03/26 09:15:01;;;;;;;23.83;10.60;;;;;;;;;;10486447;28;20232;-79
2021/03/26 09:20:06;;;;;;;13.57;8.17;;;;;;;;;;10485726;28;20206;-79
2021/03/26 09:25:23;;;;;;;13.03;7.57;;;;;;;;;;10484340;28;20761;-79
2021/03/26 09:30:27;;;;;;;14.37;7.73;;;;;;;;;;10481453;28;20675;-79
2021/03/26 09:35:30;;;;;;;14.33;7.87;;;;;;;;;;10484969;28;20646;-78
2021/03/26 09:40:39;;;;;;;14.67;7.47;;;;;;;;;;10488650;28;20202;-79
2021/03/26 09:45:44;;;;;;;13.40;7.60;;;;;;;;;;10480098;28;20249;-79
2021/03/26 09:50:50;;;;;;;12.93;6.57;;;;;;;;;;10485372;28;20211;-79
2021/03/26 09:56:04;;;;;;;14.03;6.50;;;;;;;;;;10480899;28;20242;-80
2021/03/26 10:01:09;;;;;;;11.67;6.30;;;;;;;;;;10487313;28;20647;-80
2021/03/26 10:06:16;;;;;;;12.07;5.93;;;;;;;;;;10489034;28;20499;-80
2021/03/26 10:11:21;;;;;;;13.63;5.80;;;;;;;;;;10490588;28;20247;-79
2021/03/26 10:16:29;;;;;;;10.50;5.80;;;;;;;;;;10485721;28;20238;-79
2021/03/26 10:21:33;;;;;;;9.27;5.40;;;;;;;;;;10490149;28;20211;-81
2021/03/26 10:26:39;;;;;;;11.67;5.17;;;;;;;;;;10492395;28;20694;-78
2021/03/26 10:32:05;;;;;;;11.97;4.83;;;;;;;;;;10479500;28;20823;-79
2021/03/26 10:37:20;;;;;;;8.53;4.80;;;;;;;;;;10489410;28;20210;-80
2021/03/26 10:42:30;;;;;;;10.77;5.20;;;;;;;;;;10493209;28;20233;-80
2021/03/26 10:47:35;;;;;;;8.40;4.20;;;;;;;;;;10489443;28;20206;-79
2021/03/26 10:52:42;;;;;;;9.63;4.20;;;;;;;;;;10496443;28;20675;-81
2021/03/26 10:57:54;;;;;;;8.67;3.70;;;;;;;;;;10492800;28;20210;-79
2021/03/26 11:02:59;;;;;;;7.60;3.40;;;;;;;;;;10489249;28;20375;-80
2021/03/26 11:08:14;;;;;;;6.80;3.07;;;;;;;;;;10490791;28;20718;-79
2021/03/26 11:13:23;;;;;;;8.63;3.40;;;;;;;;;;10489306;28;20333;-79
2021/03/26 11:18:27;;;;;;;7.23;3.57;;;;;;;;;;10496553;28;20248;-79
2021/03/26 11:23:32;;;;;;;6.87;3.40;;;;;;;;;;10493944;28;20234;-79
2021/03/26 11:28:39;;;;;;;7.87;3.57;;;;;;;;;;10484832;28;20270;-80
2021/03/26 11:33:45;;;;;;;7.17;3.30;;;;;;;;;;10490691;28;20203;-80
2021/03/26 11:38:47;;;;;;;9.73;3.60;;;;;;;;;;10485878;28;20613;-79
2021/03/26 11:43:52;;;;;;;6.57;3.37;;;;;;;;;;10484609;28;20619;-80
2021/03/26 11:48:57;;;;;;;7.83;3.70;;;;;;;;;;10489076;28;20694;-79
2021/03/26 11:54:01;;;;;;;8.37;3.50;;;;;;;;;;10489247;28;20274;-80
2021/03/26 11:59:15;;;;;;;7.33;3.13;;;;;;;;;;10483061;28;20314;-79
2021/03/26 12:04:21;;;;;;;5.03;2.73;;;;;;;;;;10488112;28;20721;-79
2021/03/26 12:09:27;;;;;;;8.77;3.10;;;;;;;;;;10491734;28;20671;-80
2021/03/26 12:14:31;;;;;;;4.70;2.60;;;;;;;;;;10488829;28;20236;-79
2021/03/26 12:19:35;;;;;;;5.93;3.40;;;;;;;;;;10489174;28;20648;-80
2021/03/26 12:24:41;;;;;;;6.97;2.57;;;;;;;;;;10488164;28;20222;-80
2021/03/26 12:29:50;;;;;;;7.07;2.50;;;;;;;;;;10486186;28;20739;-80
2021/03/26 12:34:54;;;;;;;7.83;2.73;;;;;;;;;;10489320;28;20220;-78
2021/03/26 12:40:01;;;;;;;5.10;2.60;;;;;;;;;;10489924;28;20260;-79
2021/03/26 12:45:09;;;;;;;6.63;2.30;;;;;;;;;;10485458;28;20559;-79
2021/03/26 12:50:13;;;;;;;6.60;2.43;;;;;;;;;;10488493;28;20310;-78
2021/03/26 12:55:20;;;;;;;6.03;2.30;;;;;;;;;;10488492;28;20303;-80
2021/03/26 13:00:31;;;;;;;3.97;2.20;;;;;;;;;;10485231;28;20202;-81
2021/03/26 13:05:34;;;;;;;5.17;2.13;;;;;;;;;;10482264;28;20797;-80
2021/03/26 13:10:40;;;;;;;5.97;2.30;;;;;;;;;;10486232;28;21027;-80
2021/03/26 13:16:03;;;;;;;5.47;2.33;;;;;;;;;;10477223;28;20242;-80
2021/03/26 13:21:10;;;;;;;4.77;2.20;;;;;;;;;;10486097;28;20598;-80
2021/03/26 13:26:17;;;;;;;4.90;2.27;;;;;;;;;;10475182;28;20233;-80
2021/03/26 13:31:22;;;;;;;4.47;2.23;;;;;;;;;;10481712;28;20205;-80
2021/03/26 13:36:33;;;;;;;5.27;2.43;;;;;;;;;;10483911;28;20662;-80
2021/03/26 13:41:39;;;;;;;7.13;2.60;;;;;;;;;;10488404;28;20226;-80
2021/03/26 13:46:46;;;;;;;7.17;2.87;;;;;;;;;;10492313;28;20233;-80
2021/03/26 13:51:53;;;;;;;6.97;2.43;;;;;;;;;;10496090;28;20218;-80
2021/03/26 13:56:55;;;;;;;5.77;2.70;;;;;;;;;;10489704;28;20247;-80
2021/03/26 14:02:07;;;;;;;5.03;2.20;;;;;;;;;;10491532;28;20322;-80
2021/03/26 14:07:14;;;;;;;2.97;2.00;;;;;;;;;;10492841;28;20214;-80
2021/03/26 14:12:26;;;;;;;3.53;2.20;;;;;;;;;;10494205;28;20203;-80
2021/03/26 14:17:34;;;;;;;2.27;1.90;;;;;;;;;;10496548;28;20214;-80
2021/03/26 14:22:37;;;;;;;3.97;2.03;;;;;;;;;;10501343;28;20232;-80
2021/03/26 14:27:53;;;;;;;3.67;2.10;;;;;;;;;;10503786;28;20651;-79
2021/03/26 14:33:05;;;;;;;3.70;1.90;;;;;;;;;;10496470;28;20313;-81
2021/03/26 14:38:26;;;;;;;5.00;2.23;;;;;;;;;;10491364;28;20242;-80
2021/03/26 14:43:30;;;;;;;3.40;2.10;;;;;;;;;;10491183;28;20234;-79
2021/03/26 14:48:38;;;;;;;5.27;2.10;;;;;;;;;;10494433;28;20203;-79
2021/03/26 14:53:43;;;;;;;3.87;2.00;;;;;;;;;;10501993;28;20210;-80
2021/03/26 14:58:49;;;;;;;5.60;1.80;;;;;;;;;;10492618;28;20303;-80
2021/03/26 15:04:05;;;;;;;2.90;1.87;;;;;;;;;;10492427;28;20237;-80
2021/03/26 15:09:22;;;;;;;3.10;1.67;;;;;;;;;;10489562;28;20721;-79
2021/03/26 15:14:28;;;;;;;3.70;1.90;;;;;;;;;;10498829;28;20244;-79
2021/03/26 15:19:34;;;;;;;6.80;2.10;;;;;;;;;;10500929;28;20538;-80
2021/03/26 15:24:59;;;;;;;4.90;1.80;;;;;;;;;;10492200;28;20234;-80
2021/03/26 15:30:26;;;;;;;3.47;1.60;;;;;;;;;;10482483;28;20210;-79
2021/03/26 15:35:32;;;;;;;6.17;1.60;;;;;;;;;;10488552;28;20217;-80
2021/03/26 15:40:38;;;;;;;3.73;1.53;;;;;;;;;;10482867;28;21472;-79
2021/03/26 15:45:44;;;;;;;4.30;1.53;;;;;;;;;;10486535;28;21864;-80
2021/03/26 15:50:48;;;;;;;3.67;1.50;;;;;;;;;;10499839;28;20214;-80
2021/03/26 15:55:55;;;;;;;4.07;1.67;;;;;;;;;;10490909;28;20679;-80
2021/03/26 16:01:08;;;;;;;5.83;1.70;;;;;;;;;;10491113;28;20222;-80
2021/03/26 16:06:32;;;;;;;3.10;1.40;;;;;;;;;;10488896;28;20816;-80
2021/03/26 16:11:47;;;;;;;3.57;1.63;;;;;;;;;;10496440;28;20709;-80
2021/03/26 16:17:11;;;;;;;2.60;1.80;;;;;;;;;;10488127;28;20230;-79
2021/03/26 16:22:26;;;;;;;3.17;1.70;;;;;;;;;;10484411;28;20203;-79
2021/03/26 16:27:52;;;;;;;5.17;1.80;;;;;;;;;;10485263;28;20207;-79
2021/03/26 16:32:59;;;;;;;2.77;1.40;;;;;;;;;;10462327;28;24518;-79
2021/03/26 16:38:05;;;;;;;2.80;1.80;;;;;;;;;;10486894;28;20213;-79
2021/03/26 16:43:22;;;;;;;3.43;1.70;;;;;;;;;;10490981;28;20418;-79
2021/03/26 16:48:36;;;;;;;5.03;2.10;;;;;;;;;;10491998;28;20392;-78
2021/03/26 16:53:45;;;;;;;3.80;1.80;;;;;;;;;;10487152;28;20317;-79
2021/03/26 16:59:04;;;;;;;3.67;1.80;;;;;;;;;;10489362;28;20202;-79
2021/03/26 17:04:29;;;;;;;3.03;1.93;;;;;;;;;;10486954;28;24601;-79
2021/03/26 17:09:52;;;;;;;3.20;1.90;;;;;;;;;;10486385;28;20306;-79
2021/03/26 17:15:14;;;;;;;3.37;2.17;;;;;;;;;;10479835;28;20226;-79
2021/03/26 17:20:35;;;;;;;4.50;2.20;;;;;;;;;;10483696;28;20285;-79
2021/03/26 17:26:01;;;;;;;4.30;1.90;;;;;;;;;;10482089;28;20761;-78
2021/03/26 17:31:24;;;;;;;5.30;2.40;;;;;;;;;;10407157;28;20213;-79
2021/03/26 17:36:34;;;;;;;5.13;2.20;;;;;;;;;;10478717;28;20210;-78
2021/03/26 17:41:55;;;;;;;6.97;2.27;;;;;;;;;;10486330;28;20210;-80
2021/03/26 17:47:04;;;;;;;5.67;2.50;;;;;;;;;;10491159;28;20268;-79
2021/03/26 17:52:31;;;;;;;4.93;2.50;;;;;;;;;;10482801;28;20255;-79
2021/03/26 17:57:38;;;;;;;5.57;2.63;;;;;;;;;;10484444;28;20297;-79
2021/03/26 18:03:04;;;;;;;4.20;2.10;;;;;;;;;;10485388;28;20210;-79
2021/03/26 18:08:13;;;;;;;5.70;2.73;;;;;;;;;;10482914;28;20207;-79
2021/03/26 18:19:17;;;;;;;6.33;2.80;;;;;;;;;;10487420;28;20199;-79
2021/03/26 18:24:36;;;;;;;8.23;3.27;;;;;;;;;;10484937;28;20237;-79
2021/03/26 18:29:56;;;;;;;8.37;3.30;;;;;;;;;;10483392;28;20206;-80
2021/03/26 18:35:02;;;;;;;8.33;3.30;;;;;;;;;;10448373;28;20214;-79
2021/03/26 18:40:08;;;;;;;4.37;3.10;;;;;;;;;;10491733;28;20207;-78
2021/03/26 18:45:20;;;;;;;8.67;3.23;;;;;;;;;;10488663;28;20698;-80
2021/03/26 18:50:37;;;;;;;5.63;3.63;;;;;;;;;;10490931;28;20217;-79
2021/03/26 18:55:51;;;;;;;6.97;3.27;;;;;;;;;;10490978;28;20211;-79
2021/03/26 19:01:18;;;;;;;8.43;3.80;;;;;;;;;;10490825;28;20672;-79
2021/03/26 19:11:45;;;;;;;14.53;7.93;;;;;;;;;;10491403;28;20212;-78
2021/03/26 19:16:52;;;;;;;13.03;8.27;;;;;;;;;;10492590;28;20226;-80
2021/03/26 19:22:07;;;;;;;13.37;6.97;;;;;;;;;;10490157;28;20721;-78
2021/03/26 19:27:16;;;;;;;9.67;5.70;;;;;;;;;;10490364;28;20319;-79
2021/03/26 19:32:24;;;;;;;8.60;4.77;;;;;;;;;;10484903;28;20218;-78
2021/03/26 19:37:34;;;;;;;7.73;4.53;;;;;;;;;;10482892;28;20211;-79
2021/03/26 19:42:38;;;;;;;7.37;4.30;;;;;;;;;;10491221;28;21019;-79
2021/03/26 19:47:46;;;;;;;7.37;4.30;;;;;;;;;;10485948;28;20372;-79
2021/03/26 19:52:52;;;;;;;7.97;4.33;;;;;;;;;;10485005;28;20226;-79
2021/03/26 19:58:00;;;;;;;6.23;3.83;;;;;;;;;;10478772;28;20487;-77
2021/03/26 20:03:17;;;;;;;9.40;4.73;;;;;;;;;;10473418;28;20218;-79
2021/03/26 20:08:24;;;;;;;7.77;4.30;;;;;;;;;;10477333;28;20206;-79
2021/03/26 20:13:29;;;;;;;9.33;4.30;;;;;;;;;;10476499;28;20331;-79
2021/03/26 20:18:47;;;;;;;8.33;4.27;;;;;;;;;;10464475;28;20687;-77
2021/03/26 20:23:58;;;;;;;5.90;4.30;;;;;;;;;;10479827;28;20233;-79
2021/03/26 20:29:18;;;;;;;7.43;4.40;;;;;;;;;;10469840;28;20579;-78
2021/03/26 20:34:24;;;;;;;9.23;4.40;;;;;;;;;;10470275;28;20271;-78
2021/03/26 20:39:28;;;;;;;6.77;4.30;;;;;;;;;;10467224;28;20211;-78
2021/03/26 20:44:34;;;;;;;7.07;4.20;;;;;;;;;;10470039;28;20234;-79
2021/03/26 20:49:38;;;;;;;6.33;4.00;;;;;;;;;;10473153;28;20577;-79
2021/03/26 20:54:44;;;;;;;4.87;3.47;;;;;;;;;;10471715;28;20210;-79
2021/03/26 20:59:56;;;;;;;6.90;2.00;;;;;;;;;;10464411;28;20209;-80
2021/03/26 21:05:02;;;;;;;5.13;1.60;;;;;;;;;;10460602;28;20372;-78
2021/03/26 21:10:11;;;;;;;3.17;1.70;;;;;;;;;;10466633;28;20206;-78
2021/03/26 21:15:15;;;;;;;3.03;1.40;;;;;;;;;;10481600;28;20619;-78
2021/03/26 21:20:23;;;;;;;4.13;1.60;;;;;;;;;;10468970;28;21168;-78
2021/03/26 21:25:31;;;;;;;4.33;1.60;;;;;;;;;;10469926;28;20225;-79
2021/03/26 21:30:41;;;;;;;4.67;1.60;;;;;;;;;;10468406;28;20210;-79
2021/03/26 21:36:04;;;;;;;4.20;1.70;;;;;;;;;;10465617;28;20217;-80
2021/03/26 21:41:22;;;;;;;3.20;1.50;;;;;;;;;;10467510;28;20216;-79
2021/03/26 21:46:45;;;;;;;5.50;1.53;;;;;;;;;;10466352;28;20236;-79
2021/03/26 21:51:49;;;;;;;3.03;1.57;;;;;;;;;;10470054;28;20214;-79
2021/03/26 21:56:56;;;;;;;2.87;1.30;;;;;;;;;;10464138;28;20221;-79
2021/03/26 22:02:05;;;;;;;5.53;1.20;;;;;;;;;;10481460;28;20202;-78
2021/03/26 22:07:11;;;;;;;3.97;1.10;;;;;;;;;;10473474;28;20231;-78
2021/03/26 22:12:18;;;;;;;4.57;1.43;;;;;;;;;;10486161;28;20203;-78
2021/03/26 22:17:24;;;;;;;1.27;1.10;;;;;;;;;;10491556;28;20213;-78
2021/03/26 22:22:37;;;;;;;2.20;1.30;;;;;;;;;;10493240;28;20293;-79
2021/03/26 22:27:46;;;;;;;2.17;1.10;;;;;;;;;;10495555;28;20343;-79
2021/03/26 22:32:50;;;;;;;1.97;1.03;;;;;;;;;;10492559;28;20214;-78
2021/03/26 22:37:56;;;;;;;1.97;1.20;;;;;;;;;;10497829;28;20570;-79
2021/03/26 22:43:01;;;;;;;1.93;1.13;;;;;;;;;;10490835;28;20250;-79
2021/03/26 22:48:06;;;;;;;3.40;1.27;;;;;;;;;;10497686;28;20694;-79
2021/03/26 22:53:26;;;;;;;3.17;1.40;;;;;;;;;;10482294;28;20558;-79
2021/03/26 22:58:32;;;;;;;5.30;1.47;;;;;;;;;;10485289;28;20670;-78
2021/03/26 23:03:39;;;;;;;5.83;1.47;;;;;;;;;;10488298;28;20280;-78
2021/03/26 23:08:44;;;;;;;3.13;1.70;;;;;;;;;;10487242;28;20411;-78
2021/03/26 23:13:47;;;;;;;3.47;1.80;;;;;;;;;;10483195;28;20230;-78
2021/03/26 23:19:15;;;;;;;3.47;1.80;;;;;;;;;;10486493;28;20206;-79
2021/03/26 23:24:18;;;;;;;6.03;2.10;;;;;;;;;;10480670;28;20241;-78
2021/03/26 23:29:24;;;;;;;3.87;1.80;;;;;;;;;;10484876;28;20214;-78
2021/03/26 23:34:33;;;;;;;2.70;1.40;;;;;;;;;;10483352;28;20207;-77
2021/03/26 23:39:40;;;;;;;3.13;1.40;;;;;;;;;;10481267;28;25049;-77
2021/03/26 23:44:46;;;;;;;1.73;1.10;;;;;;;;;;10484676;28;20245;-78
2021/03/26 23:49:52;;;;;;;1.50;1.00;;;;;;;;;;10484675;28;20308;-78
2021/03/26 23:54:58;;;;;;;3.00;1.30;;;;;;;;;;10481414;28;20222;-77
